KJVL

Southern Wisconsin Regional Airport

Janesville, Wisconsin, USA
METAR KJVL 151645Z 06004KT 6SM HZ SKC 03/03 A3020
Observed Flight Rules
Dec-15 @ 16:45 UTC (23 minutes ago) Visual Flight Rules
Wind Visibility Clouds Conditions
60° at 4 knots 6 miles
  • Clear skies
  • Haze
Temperatures Readings
Current 3°C / 37°F
Dewpoint 3°C / 37°F
Humidity 100%
Altimeter 30.2" Hg
Pressure 1023 hPa
Elevation 246
METAR KJVL 151645Z 06004KT 6SM HZ SKC 03/03 A3020
Observed Flight Rules
Dec-15 @ 16:45 UTC
(23 minutes ago)
VFR
Wind Visibility
60° at 4 knots 6 miles
Clouds
  • Clear skies
Conditions
  • Haze
Temperature Dewpoint
3°C / 37°F 3°C / 37°F
Humidity Altimeter Pressure
100% 30.2" Hg 1023 hPa